Time;durP1;ratioP1;P1;durP2;ratioP2;P2;SDS_P1;SDS_P2;PMS_P1;PMS_P2;Temp;Humidity;BMP_temperature;BMP_pressure;BME280_temperature;BME280_humidity;BME280_pressure;Samples;Min_cycle;Max_cycle;Signal;HPM_P1;HPM_P2
2022/12/18 00:00:47;;;;;;;35.00;14.87;;;;;;;;;;5076832;28;20319;-29
2022/12/18 00:03:15;;;;;;;44.27;18.50;;;;;;;;;;5073849;28;20228;-27
2022/12/18 00:05:47;;;;;;;27.23;14.97;;;;;;;;;;5067680;28;20216;-28
2022/12/18 00:08:14;;;;;;;33.53;17.10;;;;;;;;;;5072610;28;20213;-27
2022/12/18 00:10:41;;;;;;;43.30;17.50;;;;;;;;;;5080691;28;20221;-27
2022/12/18 00:13:09;;;;;;;34.07;15.50;;;;;;;;;;5060136;28;20588;-28
2022/12/18 00:15:37;;;;;;;35.00;16.60;;;;;;;;;;5071352;28;20445;-26
2022/12/18 00:18:04;;;;;;;43.60;16.80;;;;;;;;;;5074026;28;20209;-26
2022/12/18 00:20:32;;;;;;;41.13;17.03;;;;;;;;;;5069927;28;20225;-25
2022/12/18 00:22:59;;;;;;;42.37;17.77;;;;;;;;;;5085419;28;20212;-28
2022/12/18 00:25:26;;;;;;;33.83;15.97;;;;;;;;;;5083593;28;20201;-29
2022/12/18 00:27:53;;;;;;;39.60;17.43;;;;;;;;;;5064635;28;20212;-25
2022/12/18 00:30:20;;;;;;;40.53;18.10;;;;;;;;;;5081198;28;20220;-27
2022/12/18 00:32:49;;;;;;;33.63;14.63;;;;;;;;;;5073387;28;20216;-24
2022/12/18 00:35:16;;;;;;;39.33;15.63;;;;;;;;;;5071317;28;20205;-26
2022/12/18 00:37:43;;;;;;;44.53;19.10;;;;;;;;;;5076175;28;20201;-25
2022/12/18 00:40:11;;;;;;;45.53;18.63;;;;;;;;;;5080333;28;20198;-28
2022/12/18 00:42:55;;;;;;;32.13;16.23;;;;;;;;;;5072251;28;20209;-25
2022/12/18 00:45:23;;;;;;;51.20;16.63;;;;;;;;;;5078816;28;20197;-25
2022/12/18 00:47:51;;;;;;;39.67;16.83;;;;;;;;;;5091940;28;20217;-27
2022/12/18 00:50:19;;;;;;;34.70;15.67;;;;;;;;;;5090959;28;20216;-27
2022/12/18 00:52:46;;;;;;;45.73;17.83;;;;;;;;;;5059729;28;20198;-26
2022/12/18 00:55:13;;;;;;;37.87;16.97;;;;;;;;;;5068547;28;20216;-28
2022/12/18 00:57:40;;;;;;;40.30;16.20;;;;;;;;;;5065103;28;20220;-26
2022/12/18 01:00:09;;;;;;;46.03;15.57;;;;;;;;;;5076997;28;20197;-26
2022/12/18 01:02:36;;;;;;;38.90;14.77;;;;;;;;;;5072944;28;20232;-28
2022/12/18 01:05:05;;;;;;;44.53;18.87;;;;;;;;;;5068105;28;20201;-29
2022/12/18 01:07:32;;;;;;;44.30;18.20;;;;;;;;;;5067083;28;20218;-24
2022/12/18 01:09:59;;;;;;;47.33;19.33;;;;;;;;;;5073637;28;20225;-28
2022/12/18 01:12:26;;;;;;;40.73;16.90;;;;;;;;;;5066380;28;20337;-27
2022/12/18 01:14:53;;;;;;;40.47;17.40;;;;;;;;;;5070017;28;20239;-28
2022/12/18 01:17:21;;;;;;;40.73;16.77;;;;;;;;;;5090238;28;20205;-27
2022/12/18 01:19:48;;;;;;;39.30;18.67;;;;;;;;;;5093056;28;20204;-28
2022/12/18 01:22:16;;;;;;;36.13;15.50;;;;;;;;;;5055700;28;20235;-27
2022/12/18 01:24:43;;;;;;;37.83;15.27;;;;;;;;;;5064620;28;20213;-28
2022/12/18 01:27:10;;;;;;;49.13;18.33;;;;;;;;;;5067069;28;20206;-28
2022/12/18 01:29:37;;;;;;;40.77;17.00;;;;;;;;;;5071774;28;20215;-25
2022/12/18 01:32:05;;;;;;;43.67;18.77;;;;;;;;;;5079168;28;20228;-26
2022/12/18 01:34:32;;;;;;;39.10;18.17;;;;;;;;;;5069814;28;20202;-27
2022/12/18 01:36:59;;;;;;;47.27;21.20;;;;;;;;;;5067431;28;20216;-28
2022/12/18 01:39:27;;;;;;;42.37;17.53;;;;;;;;;;5071513;28;20675;-27
2022/12/18 01:42:04;;;;;;;39.93;17.50;;;;;;;;;;5066150;28;20217;-25
2022/12/18 01:44:49;;;;;;;34.80;17.40;;;;;;;;;;5069703;28;20209;-27
2022/12/18 01:47:17;;;;;;;42.17;17.57;;;;;;;;;;5071235;28;20205;-26
2022/12/18 01:49:44;;;;;;;43.67;16.77;;;;;;;;;;5066949;28;20205;-27
2022/12/18 01:52:11;;;;;;;44.10;17.90;;;;;;;;;;5065855;28;20238;-27
2022/12/18 01:54:39;;;;;;;40.33;18.60;;;;;;;;;;5090775;28;20207;-25
2022/12/18 01:57:07;;;;;;;45.57;18.17;;;;;;;;;;5072621;28;20210;-27
2022/12/18 01:59:34;;;;;;;34.77;16.03;;;;;;;;;;5068512;28;20215;-28
2022/12/18 02:02:02;;;;;;;35.17;15.43;;;;;;;;;;5073124;28;20228;-26
2022/12/18 02:04:29;;;;;;;31.00;15.00;;;;;;;;;;5081085;28;20198;-25
2022/12/18 02:07:00;;;;;;;39.00;16.63;;;;;;;;;;5071131;28;20204;-27
2022/12/18 02:09:29;;;;;;;41.87;19.27;;;;;;;;;;5060564;28;20303;-28
2022/12/18 02:12:01;;;;;;;38.43;17.87;;;;;;;;;;5057144;28;20229;-27
2022/12/18 02:14:31;;;;;;;40.27;16.63;;;;;;;;;;5081959;28;20204;-29
2022/12/18 02:17:01;;;;;;;39.43;18.20;;;;;;;;;;5091313;28;20197;-29
2022/12/18 02:19:55;;;;;;;29.30;13.67;;;;;;;;;;5073773;28;20203;-26
2022/12/18 02:22:28;;;;;;;37.40;14.17;;;;;;;;;;5068832;28;20239;-32
2022/12/18 02:25:01;;;;;;;38.03;15.17;;;;;;;;;;5090729;28;20205;-28
2022/12/18 02:27:31;;;;;;;47.40;19.67;;;;;;;;;;5072743;28;20204;-27
2022/12/18 02:29:59;;;;;;;44.20;17.30;;;;;;;;;;5077039;28;20201;-28
2022/12/18 02:32:27;;;;;;;44.97;18.50;;;;;;;;;;5087468;28;20220;-29
2022/12/18 02:34:55;;;;;;;43.80;19.00;;;;;;;;;;5062882;28;20202;-32
2022/12/18 02:37:24;;;;;;;43.80;17.03;;;;;;;;;;5063957;28;20593;-24
2022/12/18 02:39:52;;;;;;;41.43;17.93;;;;;;;;;;5077104;28;20204;-26
2022/12/18 02:42:20;;;;;;;39.63;17.03;;;;;;;;;;5062879;28;20225;-24
2022/12/18 02:44:49;;;;;;;38.10;17.40;;;;;;;;;;5066144;28;20212;-28
2022/12/18 02:47:18;;;;;;;26.50;13.97;;;;;;;;;;5069471;28;20206;-26
2022/12/18 02:49:50;;;;;;;38.37;18.33;;;;;;;;;;5061704;28;20207;-28
2022/12/18 02:52:21;;;;;;;34.30;15.23;;;;;;;;;;5067954;28;20278;-25
2022/12/18 02:54:56;;;;;;;38.70;16.70;;;;;;;;;;5075495;28;20193;-28
2022/12/18 02:57:29;;;;;;;36.13;16.13;;;;;;;;;;5073394;28;20208;-24
2022/12/18 03:00:02;;;;;;;40.77;15.30;;;;;;;;;;5071461;28;20209;-31
2022/12/18 03:02:33;;;;;;;37.57;16.37;;;;;;;;;;5067457;28;20244;-27
2022/12/18 03:05:03;;;;;;;40.33;16.23;;;;;;;;;;5064200;28;20205;-25
2022/12/18 03:07:36;;;;;;;34.07;15.67;;;;;;;;;;5082643;28;20211;-22
2022/12/18 03:10:04;;;;;;;40.97;16.80;;;;;;;;;;5074989;28;20292;-23
2022/12/18 03:12:32;;;;;;;33.50;13.57;;;;;;;;;;5060711;28;20226;-26
2022/12/18 03:15:04;;;;;;;32.07;14.43;;;;;;;;;;5069867;28;20212;-29
2022/12/18 03:17:32;;;;;;;39.20;15.40;;;;;;;;;;5078230;28;20201;-27
2022/12/18 03:20:01;;;;;;;37.73;14.33;;;;;;;;;;5069749;28;20208;-28
2022/12/18 03:22:30;;;;;;;40.73;17.40;;;;;;;;;;5057873;28;20228;-27
2022/12/18 03:24:58;;;;;;;30.50;14.30;;;;;;;;;;5074834;28;20565;-23
2022/12/18 03:27:26;;;;;;;35.10;15.90;;;;;;;;;;5067118;28;20209;-24
2022/12/18 03:29:55;;;;;;;34.40;15.23;;;;;;;;;;5067804;28;20193;-28
2022/12/18 03:32:26;;;;;;;34.03;14.80;;;;;;;;;;5086753;28;20220;-26
2022/12/18 03:34:54;;;;;;;39.03;15.93;;;;;;;;;;5069090;28;20204;-24
2022/12/18 03:37:21;;;;;;;38.20;15.33;;;;;;;;;;5067204;28;20212;-29
2022/12/18 03:39:48;;;;;;;33.93;15.80;;;;;;;;;;5081209;28;20204;-26
2022/12/18 03:42:17;;;;;;;29.20;15.43;;;;;;;;;;5066932;28;20233;-24
2022/12/18 03:44:49;;;;;;;31.13;14.90;;;;;;;;;;5063613;28;20201;-26
2022/12/18 03:47:18;;;;;;;31.10;14.40;;;;;;;;;;5069774;28;20201;-28
2022/12/18 03:49:49;;;;;;;34.67;14.80;;;;;;;;;;5064012;28;20197;-26
2022/12/18 03:52:20;;;;;;;31.00;14.50;;;;;;;;;;5073310;28;20228;-24
2022/12/18 03:54:47;;;;;;;39.63;16.07;;;;;;;;;;5089897;28;20301;-30
2022/12/18 03:57:16;;;;;;;39.47;17.17;;;;;;;;;;5071386;28;20209;-28
2022/12/18 03:59:44;;;;;;;39.23;15.13;;;;;;;;;;5060384;28;20209;-28
2022/12/18 04:02:12;;;;;;;29.10;14.03;;;;;;;;;;5069196;28;20223;-27
2022/12/18 04:04:40;;;;;;;35.40;13.93;;;;;;;;;;5064551;28;20198;-29
2022/12/18 04:12:13;;;;;;;37.37;13.67;;;;;;;;;;5040246;28;20317;-32
2022/12/18 04:14:40;;;;;;;33.23;14.40;;;;;;;;;;5058273;28;20202;-32
2022/12/18 04:17:07;;;;;;;28.67;14.03;;;;;;;;;;5064839;28;20207;-32
2022/12/18 04:19:34;;;;;;;27.70;13.87;;;;;;;;;;5060186;28;20208;-33
2022/12/18 04:22:01;;;;;;;29.30;12.57;;;;;;;;;;5062127;28;20557;-33
2022/12/18 04:24:28;;;;;;;31.87;12.77;;;;;;;;;;5073720;28;20201;-32
2022/12/18 04:26:56;;;;;;;28.67;12.37;;;;;;;;;;5048683;28;20212;-33
2022/12/18 04:29:24;;;;;;;30.77;14.20;;;;;;;;;;5059594;28;20468;-33
2022/12/18 04:31:51;;;;;;;31.87;13.37;;;;;;;;;;5059311;28;20279;-29
2022/12/18 04:34:18;;;;;;;29.70;11.60;;;;;;;;;;5042575;28;20238;-31
2022/12/18 04:36:46;;;;;;;32.77;13.83;;;;;;;;;;5045086;28;20212;-34
2022/12/18 04:39:13;;;;;;;32.00;14.10;;;;;;;;;;5067880;28;20217;-30
2022/12/18 04:41:41;;;;;;;34.20;12.90;;;;;;;;;;5046864;28;20217;-33
2022/12/18 04:44:08;;;;;;;29.30;13.13;;;;;;;;;;5049907;28;20206;-34
2022/12/18 04:46:36;;;;;;;25.03;12.47;;;;;;;;;;5063691;28;20654;-31
2022/12/18 04:49:04;;;;;;;37.77;14.10;;;;;;;;;;5073001;28;20483;-34
2022/12/18 04:51:31;;;;;;;33.10;14.17;;;;;;;;;;5044524;28;20232;-31
2022/12/18 04:53:58;;;;;;;34.87;13.07;;;;;;;;;;5061149;28;20212;-35
2022/12/18 04:56:25;;;;;;;34.30;15.17;;;;;;;;;;5060548;28;20202;-29
2022/12/18 04:58:52;;;;;;;36.50;15.47;;;;;;;;;;5052644;28;20197;-30
2022/12/18 05:01:19;;;;;;;30.40;12.47;;;;;;;;;;5064203;28;20224;-31
2022/12/18 05:03:48;;;;;;;28.00;12.47;;;;;;;;;;5053771;28;20210;-36
2022/12/18 05:06:15;;;;;;;29.03;14.30;;;;;;;;;;5046380;28;20300;-30
2022/12/18 05:08:42;;;;;;;28.10;13.93;;;;;;;;;;5057765;28;20210;-30
2022/12/18 05:11:10;;;;;;;29.10;13.37;;;;;;;;;;5047654;28;20229;-34
2022/12/18 05:13:38;;;;;;;30.27;14.37;;;;;;;;;;5059378;28;20209;-31
2022/12/18 05:16:06;;;;;;;34.40;14.13;;;;;;;;;;5065982;28;20206;-31
2022/12/18 05:18:33;;;;;;;32.90;14.17;;;;;;;;;;5046556;28;20206;-30
2022/12/18 05:21:02;;;;;;;34.97;14.20;;;;;;;;;;5036673;28;20226;-33
2022/12/18 05:23:29;;;;;;;27.37;12.00;;;;;;;;;;5049412;28;20739;-31
2022/12/18 05:25:57;;;;;;;23.70;11.23;;;;;;;;;;5047792;28;20268;-30
2022/12/18 05:28:26;;;;;;;24.17;12.30;;;;;;;;;;5041870;28;20213;-33
2022/12/18 05:30:53;;;;;;;29.90;13.03;;;;;;;;;;5051495;28;20249;-33
2022/12/18 05:33:20;;;;;;;31.53;12.67;;;;;;;;;;5051889;28;20213;-32
2022/12/18 05:35:52;;;;;;;22.73;12.23;;;;;;;;;;5048265;28;20224;-34
2022/12/18 05:38:20;;;;;;;26.37;11.90;;;;;;;;;;5051119;28;20218;-33
2022/12/18 05:40:48;;;;;;;26.37;11.33;;;;;;;;;;5050053;28;20236;-31
2022/12/18 05:43:16;;;;;;;29.67;12.30;;;;;;;;;;5039604;28;20203;-33
2022/12/18 05:45:43;;;;;;;21.07;11.27;;;;;;;;;;5043559;28;20198;-33
2022/12/18 05:48:10;;;;;;;26.63;12.87;;;;;;;;;;5052307;28;20202;-33
2022/12/18 05:50:38;;;;;;;21.87;11.57;;;;;;;;;;5047656;28;20770;-32
2022/12/18 05:53:05;;;;;;;25.53;12.27;;;;;;;;;;5046438;28;20317;-32
2022/12/18 05:55:36;;;;;;;23.40;10.77;;;;;;;;;;5061790;28;20568;-29
2022/12/18 05:58:03;;;;;;;27.17;13.37;;;;;;;;;;5051457;28;20546;-32
2022/12/18 06:00:34;;;;;;;25.03;11.60;;;;;;;;;;5061483;28;20236;-36
2022/12/18 06:03:01;;;;;;;21.73;10.67;;;;;;;;;;5071803;28;20202;-31
2022/12/18 06:05:29;;;;;;;29.33;13.37;;;;;;;;;;5046466;28;20214;-30
2022/12/18 06:07:56;;;;;;;31.27;13.90;;;;;;;;;;5051335;28;20230;-34
2022/12/18 06:10:23;;;;;;;21.77;10.37;;;;;;;;;;5049811;28;20283;-31
2022/12/18 06:12:51;;;;;;;22.03;12.37;;;;;;;;;;5053539;28;20225;-33
2022/12/18 06:15:18;;;;;;;46.40;13.50;;;;;;;;;;5055669;28;20197;-29
2022/12/18 06:17:46;;;;;;;25.27;13.00;;;;;;;;;;5071213;28;20422;-30
2022/12/18 06:20:13;;;;;;;29.27;13.40;;;;;;;;;;5061158;28;20209;-32
2022/12/18 06:22:40;;;;;;;29.03;12.67;;;;;;;;;;5056917;28;20396;-32
2022/12/18 06:25:07;;;;;;;32.90;12.67;;;;;;;;;;5050805;28;20198;-29
2022/12/18 06:27:35;;;;;;;30.97;12.07;;;;;;;;;;5045418;28;20202;-33
2022/12/18 06:30:03;;;;;;;27.27;12.97;;;;;;;;;;5046415;28;20205;-29
2022/12/18 06:32:30;;;;;;;26.47;13.23;;;;;;;;;;5069098;28;20228;-38
2022/12/18 06:34:57;;;;;;;33.87;14.33;;;;;;;;;;5058397;28;20572;-30
2022/12/18 06:37:25;;;;;;;34.20;12.23;;;;;;;;;;5050434;28;20206;-33
2022/12/18 06:39:53;;;;;;;25.03;11.70;;;;;;;;;;5058061;28;20275;-33
2022/12/18 06:42:20;;;;;;;27.90;10.60;;;;;;;;;;5041301;28;20222;-31
2022/12/18 06:44:47;;;;;;;33.27;12.93;;;;;;;;;;5066792;28;20228;-33
2022/12/18 06:47:15;;;;;;;27.50;11.53;;;;;;;;;;5054458;28;20206;-36
2022/12/18 06:49:42;;;;;;;32.13;13.97;;;;;;;;;;5050577;28;20212;-34
2022/12/18 06:52:10;;;;;;;22.57;9.77;;;;;;;;;;5037755;28;20226;-33
2022/12/18 06:54:37;;;;;;;25.90;11.50;;;;;;;;;;5044744;28;20485;-30
2022/12/18 06:57:04;;;;;;;24.00;11.13;;;;;;;;;;5047152;28;20202;-34
2022/12/18 06:59:31;;;;;;;25.20;12.27;;;;;;;;;;5044602;28;20210;-30
2022/12/18 07:01:58;;;;;;;24.23;12.13;;;;;;;;;;5043251;28;20222;-32
2022/12/18 07:04:30;;;;;;;19.93;10.13;;;;;;;;;;5039922;28;20643;-33
2022/12/18 07:06:57;;;;;;;21.77;11.07;;;;;;;;;;5039912;28;20224;-32
2022/12/18 07:09:24;;;;;;;23.13;10.87;;;;;;;;;;5044894;28;20206;-33
2022/12/18 07:11:52;;;;;;;21.93;9.97;;;;;;;;;;5045540;28;20561;-32
2022/12/18 07:14:19;;;;;;;29.83;13.27;;;;;;;;;;5042372;28;20209;-31
2022/12/18 07:16:46;;;;;;;22.77;10.27;;;;;;;;;;5045996;28;20205;-32
2022/12/18 07:19:13;;;;;;;22.60;10.57;;;;;;;;;;5030883;28;20236;-35
2022/12/18 07:21:41;;;;;;;27.73;9.97;;;;;;;;;;5040124;28;20220;-32
2022/12/18 07:24:09;;;;;;;27.90;10.73;;;;;;;;;;5051231;28;20296;-32
2022/12/18 07:26:36;;;;;;;30.67;10.97;;;;;;;;;;5057238;28;20213;-29
2022/12/18 07:29:03;;;;;;;24.53;9.90;;;;;;;;;;5055812;28;20204;-32
2022/12/18 07:31:30;;;;;;;26.80;11.63;;;;;;;;;;5046546;28;20234;-32
2022/12/18 07:33:57;;;;;;;24.50;11.50;;;;;;;;;;5046263;28;20209;-31
2022/12/18 07:36:24;;;;;;;19.30;10.63;;;;;;;;;;5045724;28;20202;-30
2022/12/18 07:38:53;;;;;;;16.60;9.30;;;;;;;;;;5038203;28;20199;-28
2022/12/18 07:41:20;;;;;;;23.50;10.33;;;;;;;;;;5039789;28;20226;-38
2022/12/18 07:43:50;;;;;;;23.73;11.17;;;;;;;;;;5041847;28;20212;-30
2022/12/18 07:46:18;;;;;;;27.20;10.60;;;;;;;;;;5068833;28;20194;-28
2022/12/18 07:48:45;;;;;;;22.03;11.73;;;;;;;;;;5066218;28;20204;-28
2022/12/18 07:51:13;;;;;;;25.30;11.03;;;;;;;;;;5044765;28;20238;-30
2022/12/18 07:53:40;;;;;;;23.47;10.90;;;;;;;;;;5054576;28;20205;-33
2022/12/18 07:56:09;;;;;;;23.27;11.87;;;;;;;;;;5065983;28;20569;-30
2022/12/18 07:58:37;;;;;;;25.23;9.87;;;;;;;;;;5056358;28;20210;-31
2022/12/18 08:01:05;;;;;;;22.60;10.67;;;;;;;;;;5065248;28;20225;-33
2022/12/18 08:03:32;;;;;;;24.77;10.93;;;;;;;;;;5074543;28;20202;-33
2022/12/18 08:06:00;;;;;;;24.00;11.87;;;;;;;;;;5048912;28;20206;-31
2022/12/18 08:08:29;;;;;;;25.63;11.47;;;;;;;;;;5042082;28;20221;-33
2022/12/18 08:10:56;;;;;;;30.93;12.00;;;;;;;;;;5054694;28;20233;-28
2022/12/18 08:13:24;;;;;;;30.57;13.30;;;;;;;;;;5048114;28;20221;-30
2022/12/18 08:15:57;;;;;;;31.87;11.87;;;;;;;;;;5064670;28;20217;-30
2022/12/18 08:18:25;;;;;;;19.33;9.40;;;;;;;;;;5071851;28;20205;-31
2022/12/18 08:20:56;;;;;;;24.70;13.10;;;;;;;;;;5053580;28;20683;-34
2022/12/18 08:23:23;;;;;;;28.93;13.63;;;;;;;;;;5052159;28;20552;-29
2022/12/18 08:25:51;;;;;;;23.43;11.10;;;;;;;;;;5060674;28;20517;-32
2022/12/18 08:28:18;;;;;;;26.07;12.23;;;;;;;;;;5046456;28;20717;-33
2022/12/18 08:30:46;;;;;;;29.27;15.00;;;;;;;;;;5061820;28;20229;-31
2022/12/18 08:33:13;;;;;;;27.87;13.87;;;;;;;;;;5054829;28;20226;-30
2022/12/18 08:35:41;;;;;;;37.10;16.13;;;;;;;;;;5049203;28;20512;-30
2022/12/18 08:38:08;;;;;;;31.47;15.20;;;;;;;;;;5046291;28;20212;-30
2022/12/18 08:40:35;;;;;;;28.67;14.40;;;;;;;;;;5049130;28;20330;-28
2022/12/18 08:45:48;;;;;;;31.50;16.40;;;;;;;;;;5058759;28;20203;-33
2022/12/18 08:48:15;;;;;;;36.03;17.30;;;;;;;;;;5070955;28;20206;-32
2022/12/18 08:50:42;;;;;;;40.33;17.47;;;;;;;;;;5040986;28;20234;-33
2022/12/18 08:53:10;;;;;;;31.20;15.20;;;;;;;;;;5051054;28;20221;-35
2022/12/18 08:55:37;;;;;;;31.67;15.07;;;;;;;;;;5072635;28;20263;-34
2022/12/18 08:58:05;;;;;;;26.53;15.90;;;;;;;;;;5051185;28;20213;-31
2022/12/18 09:00:32;;;;;;;39.77;16.57;;;;;;;;;;5053175;28;20237;-32
2022/12/18 09:03:01;;;;;;;30.60;14.90;;;;;;;;;;5055585;28;20198;-35
2022/12/18 09:05:28;;;;;;;33.00;15.40;;;;;;;;;;5045913;28;20213;-31
2022/12/18 09:07:56;;;;;;;32.63;17.03;;;;;;;;;;5071944;28;20670;-28
2022/12/18 09:10:23;;;;;;;32.80;16.23;;;;;;;;;;5073584;28;20612;-33
2022/12/18 09:12:50;;;;;;;28.37;15.50;;;;;;;;;;5052584;28;20578;-31
2022/12/18 09:15:17;;;;;;;40.33;18.87;;;;;;;;;;5051384;28;20781;-31
2022/12/18 09:17:44;;;;;;;33.97;16.70;;;;;;;;;;5054941;28;20212;-33
2022/12/18 09:20:13;;;;;;;36.07;17.33;;;;;;;;;;5059713;28;20201;-33
2022/12/18 09:22:40;;;;;;;29.40;15.00;;;;;;;;;;5063866;28;20194;-30
2022/12/18 09:25:08;;;;;;;30.07;16.83;;;;;;;;;;5055226;28;20283;-32
2022/12/18 09:27:35;;;;;;;34.70;15.93;;;;;;;;;;5049997;28;20290;-32
2022/12/18 09:30:03;;;;;;;39.53;17.93;;;;;;;;;;5056077;28;20215;-29
2022/12/18 09:32:30;;;;;;;39.53;17.23;;;;;;;;;;5055718;28;20240;-30
2022/12/18 09:34:57;;;;;;;36.10;16.27;;;;;;;;;;5049899;28;20209;-31
2022/12/18 09:37:25;;;;;;;31.67;16.70;;;;;;;;;;5048677;28;20206;-32
2022/12/18 09:39:52;;;;;;;33.87;17.30;;;;;;;;;;5041090;28;20212;-31
2022/12/18 09:42:22;;;;;;;35.17;17.97;;;;;;;;;;5044416;28;20230;-32
2022/12/18 09:44:51;;;;;;;35.87;18.37;;;;;;;;;;5053461;28;20212;-32
2022/12/18 09:47:20;;;;;;;31.73;16.90;;;;;;;;;;5055557;28;20293;-36
2022/12/18 09:49:48;;;;;;;36.77;17.90;;;;;;;;;;5045313;28;20264;-34
2022/12/18 09:52:19;;;;;;;34.37;17.57;;;;;;;;;;5055740;28;20229;-28
2022/12/18 09:54:50;;;;;;;35.40;15.67;;;;;;;;;;5046107;28;20194;-32
2022/12/18 09:57:18;;;;;;;31.27;16.17;;;;;;;;;;5047541;28;20206;-30
2022/12/18 09:59:48;;;;;;;32.87;16.83;;;;;;;;;;5053071;28;20205;-32
2022/12/18 10:02:18;;;;;;;34.63;17.03;;;;;;;;;;5068577;28;20230;-29
2022/12/18 10:04:48;;;;;;;33.97;17.10;;;;;;;;;;5039545;28;20430;-31
2022/12/18 10:07:18;;;;;;;34.97;16.87;;;;;;;;;;5056772;28;20686;-30
2022/12/18 10:12:18;;;;;;;34.73;18.47;;;;;;;;;;5027533;28;20230;-31
2022/12/18 10:14:48;;;;;;;33.77;16.67;;;;;;;;;;5027841;28;20679;-34
2022/12/18 10:17:20;;;;;;;36.67;17.10;;;;;;;;;;5051568;28;20202;-32
2022/12/18 10:19:50;;;;;;;35.13;16.43;;;;;;;;;;5029639;28;20708;-35
2022/12/18 10:22:23;;;;;;;38.47;19.13;;;;;;;;;;5029610;28;20230;-32
2022/12/18 10:24:54;;;;;;;31.90;16.40;;;;;;;;;;5029459;28;20281;-34
2022/12/18 10:27:26;;;;;;;30.90;16.10;;;;;;;;;;5022781;28;20665;-32
2022/12/18 10:29:53;;;;;;;34.97;15.83;;;;;;;;;;5030397;28;20206;-31
2022/12/18 10:32:22;;;;;;;33.40;16.80;;;;;;;;;;5033069;28;20253;-31
2022/12/18 10:34:49;;;;;;;40.23;15.93;;;;;;;;;;5031558;28;20237;-34
2022/12/18 10:37:18;;;;;;;33.97;17.87;;;;;;;;;;5025028;28;20211;-29
2022/12/18 10:39:45;;;;;;;39.20;18.37;;;;;;;;;;5019937;28;20213;-30
2022/12/18 10:42:17;;;;;;;52.50;19.47;;;;;;;;;;5024791;28;20318;-32
2022/12/18 10:44:46;;;;;;;39.77;18.70;;;;;;;;;;5038423;28;20559;-34
2022/12/18 10:47:15;;;;;;;40.50;19.00;;;;;;;;;;5051939;28;20202;-33
2022/12/18 10:49:48;;;;;;;42.03;20.70;;;;;;;;;;5046161;28;20306;-35
2022/12/18 10:52:17;;;;;;;38.10;20.37;;;;;;;;;;5018228;28;20238;-29
2022/12/18 10:54:48;;;;;;;38.97;17.97;;;;;;;;;;5023388;28;20651;-32
2022/12/18 10:57:15;;;;;;;37.30;18.60;;;;;;;;;;5022156;28;20218;-32
2022/12/18 10:59:52;;;;;;;41.60;19.47;;;;;;;;;;5029230;28;20212;-35
2022/12/18 11:02:27;;;;;;;42.53;20.10;;;;;;;;;;5050782;28;20413;-35
2022/12/18 11:04:54;;;;;;;43.50;20.63;;;;;;;;;;5032983;28;20202;-31
2022/12/18 11:07:22;;;;;;;42.57;19.83;;;;;;;;;;5017814;28;20216;-34
2022/12/18 11:10:01;;;;;;;37.63;19.57;;;;;;;;;;5034049;28;20205;-33
2022/12/18 11:12:29;;;;;;;39.33;19.60;;;;;;;;;;5028386;28;20589;-30
2022/12/18 11:14:59;;;;;;;38.07;20.17;;;;;;;;;;5042520;28;20222;-33
2022/12/18 11:17:28;;;;;;;39.87;20.90;;;;;;;;;;5028719;28;20207;-35
2022/12/18 11:19:56;;;;;;;42.97;20.90;;;;;;;;;;5026528;28;20268;-33
2022/12/18 11:22:26;;;;;;;40.83;19.03;;;;;;;;;;5020700;28;20234;-31
2022/12/18 11:24:55;;;;;;;38.90;18.60;;;;;;;;;;5032205;28;20208;-31
2022/12/18 11:27:22;;;;;;;40.10;19.30;;;;;;;;;;5029858;28;20221;-31
2022/12/18 11:29:51;;;;;;;42.67;21.50;;;;;;;;;;5043856;28;20212;-32
2022/12/18 11:32:26;;;;;;;38.97;20.27;;;;;;;;;;5031158;28;20227;-35
2022/12/18 11:34:55;;;;;;;43.30;19.93;;;;;;;;;;5018195;28;20218;-34
2022/12/18 11:37:22;;;;;;;44.23;20.23;;;;;;;;;;5042104;28;20202;-30
2022/12/18 11:39:54;;;;;;;39.17;19.50;;;;;;;;;;5029127;28;20226;-30
2022/12/18 11:42:22;;;;;;;39.63;20.40;;;;;;;;;;5026616;28;20228;-31
2022/12/18 11:44:51;;;;;;;42.13;22.00;;;;;;;;;;5048745;28;20202;-33
2022/12/18 11:47:29;;;;;;;37.97;20.60;;;;;;;;;;5025506;28;20603;-31
2022/12/18 11:49:57;;;;;;;37.67;19.07;;;;;;;;;;5017981;28;20256;-30
2022/12/18 11:52:25;;;;;;;45.07;21.37;;;;;;;;;;5033762;28;20252;-28
2022/12/18 11:54:53;;;;;;;36.80;18.93;;;;;;;;;;5039617;28;20222;-34
2022/12/18 11:57:27;;;;;;;37.43;19.60;;;;;;;;;;5025197;28;20211;-31
2022/12/18 11:59:57;;;;;;;35.43;18.67;;;;;;;;;;5028737;28;20193;-32
2022/12/18 12:02:36;;;;;;;37.43;18.93;;;;;;;;;;5035025;28;20226;-33
2022/12/18 12:05:13;;;;;;;29.93;15.63;;;;;;;;;;5021774;28;20680;-33
2022/12/18 12:07:44;;;;;;;33.63;17.13;;;;;;;;;;5024005;28;20194;-32
2022/12/18 12:10:18;;;;;;;36.13;18.53;;;;;;;;;;5046309;28;20218;-34
2022/12/18 12:12:53;;;;;;;32.03;14.90;;;;;;;;;;5030412;28;20230;-33
2022/12/18 12:15:30;;;;;;;34.67;16.63;;;;;;;;;;5029062;28;20222;-32
2022/12/18 12:18:06;;;;;;;36.43;15.00;;;;;;;;;;5027115;28;20215;-30
2022/12/18 12:20:38;;;;;;;29.03;14.13;;;;;;;;;;5038098;28;20309;-30
2022/12/18 12:23:09;;;;;;;30.37;14.80;;;;;;;;;;5024139;28;20207;-34
2022/12/18 12:25:39;;;;;;;28.00;13.30;;;;;;;;;;5026264;28;20210;-31
2022/12/18 12:28:16;;;;;;;26.30;13.23;;;;;;;;;;5019511;28;20207;-31
2022/12/18 12:30:48;;;;;;;28.43;12.93;;;;;;;;;;5032919;28;20226;-34
2022/12/18 12:33:24;;;;;;;33.47;15.87;;;;;;;;;;5029051;28;20211;-32
2022/12/18 12:35:54;;;;;;;27.03;14.20;;;;;;;;;;5027156;28;20206;-35
2022/12/18 12:38:23;;;;;;;19.20;9.13;;;;;;;;;;5032710;28;20671;-30
2022/12/18 12:40:53;;;;;;;37.13;16.67;;;;;;;;;;5031624;28;20229;-34
2022/12/18 12:43:25;;;;;;;17.00;8.20;;;;;;;;;;5030597;28;20661;-35
2022/12/18 12:45:55;;;;;;;17.50;7.17;;;;;;;;;;5035153;28;20198;-32
2022/12/18 12:48:29;;;;;;;24.73;12.20;;;;;;;;;;5032410;28;20268;-34
2022/12/18 12:51:02;;;;;;;26.53;11.70;;;;;;;;;;5029167;28;20225;-30
2022/12/18 12:53:32;;;;;;;26.10;12.27;;;;;;;;;;5031815;28;20622;-36
2022/12/18 12:55:59;;;;;;;33.83;13.57;;;;;;;;;;5036580;28;20203;-33
2022/12/18 12:58:32;;;;;;;25.67;12.03;;;;;;;;;;5029757;28;20675;-35
2022/12/18 13:01:03;;;;;;;30.60;12.10;;;;;;;;;;5037996;28;20253;-31
2022/12/18 13:03:36;;;;;;;19.80;9.70;;;;;;;;;;5023797;28;20206;-31
2022/12/18 13:06:09;;;;;;;28.53;13.97;;;;;;;;;;5027957;28;20202;-34
2022/12/18 13:08:53;;;;;;;32.60;14.10;;;;;;;;;;5032754;28;20214;-33
2022/12/18 13:14:22;;;;;;;32.47;16.43;;;;;;;;;;5026391;28;20242;-32
2022/12/18 13:16:49;;;;;;;26.20;12.83;;;;;;;;;;5031089;28;20219;-32
2022/12/18 13:19:25;;;;;;;32.10;14.50;;;;;;;;;;5029366;28;20211;-32
2022/12/18 13:21:55;;;;;;;29.20;12.27;;;;;;;;;;5026507;28;20226;-32
2022/12/18 13:24:25;;;;;;;29.23;13.87;;;;;;;;;;5032138;28;20243;-31
2022/12/18 13:26:52;;;;;;;26.90;12.07;;;;;;;;;;5025679;28;20242;-31
2022/12/18 13:29:34;;;;;;;29.70;14.87;;;;;;;;;;5037722;28;20202;-32
2022/12/18 13:32:02;;;;;;;34.53;15.37;;;;;;;;;;5033334;28;20222;-29
2022/12/18 13:34:31;;;;;;;25.60;10.40;;;;;;;;;;5032206;28;20230;-31
2022/12/18 13:37:19;;;;;;;28.43;13.03;;;;;;;;;;5024572;28;20297;-30
2022/12/18 13:39:46;;;;;;;28.93;12.73;;;;;;;;;;5030255;28;20347;-29
2022/12/18 13:45:35;;;;;;;26.93;13.43;;;;;;;;;;5029018;28;20235;-28
2022/12/18 13:48:02;;;;;;;29.93;13.40;;;;;;;;;;5028678;28;20215;-32
2022/12/18 13:50:31;;;;;;;26.37;13.53;;;;;;;;;;5031007;28;20221;-32
2022/12/18 13:52:59;;;;;;;27.83;13.33;;;;;;;;;;5026529;28;20219;-33
2022/12/18 13:55:26;;;;;;;35.07;17.43;;;;;;;;;;5030466;28;20496;-30
2022/12/18 13:58:04;;;;;;;30.33;13.77;;;;;;;;;;5029931;28;20656;-31
2022/12/18 14:00:31;;;;;;;28.77;12.93;;;;;;;;;;5035691;28;20313;-30
2022/12/18 14:02:59;;;;;;;21.80;10.07;;;;;;;;;;5031965;28;20431;-30
2022/12/18 14:05:27;;;;;;;28.00;12.33;;;;;;;;;;5026753;28;20205;-35
2022/12/18 14:07:56;;;;;;;27.73;13.23;;;;;;;;;;5029409;28;20210;-31
2022/12/18 14:10:41;;;;;;;29.00;13.20;;;;;;;;;;5146776;27;20602;-33
2022/12/18 14:13:10;;;;;;;33.13;13.97;;;;;;;;;;5117190;27;20794;-31
2022/12/18 14:15:38;;;;;;;26.07;13.30;;;;;;;;;;5131811;27;20200;-35
2022/12/18 14:18:15;;;;;;;29.10;14.20;;;;;;;;;;5122207;27;20207;-35
2022/12/18 14:20:47;;;;;;;27.87;12.20;;;;;;;;;;5117215;27;20219;-32
2022/12/18 14:23:27;;;;;;;30.13;14.13;;;;;;;;;;5121812;27;20290;-32
2022/12/18 14:25:55;;;;;;;32.73;13.97;;;;;;;;;;5119877;27;20570;-32
2022/12/18 14:28:23;;;;;;;34.07;13.63;;;;;;;;;;5122846;27;20661;-31
2022/12/18 14:30:50;;;;;;;30.33;14.00;;;;;;;;;;5119060;27;20234;-31
2022/12/18 14:33:18;;;;;;;33.20;14.47;;;;;;;;;;5121437;27;20210;-30
2022/12/18 14:35:55;;;;;;;32.97;14.40;;;;;;;;;;5118551;27;20204;-29
2022/12/18 14:38:24;;;;;;;28.97;14.57;;;;;;;;;;5119939;27;20622;-35
2022/12/18 14:41:00;;;;;;;29.47;12.50;;;;;;;;;;5118331;27;20220;-36
2022/12/18 14:43:28;;;;;;;25.80;11.80;;;;;;;;;;5118671;27;20204;-34
2022/12/18 14:45:56;;;;;;;26.17;12.90;;;;;;;;;;5131053;27;20240;-33